createdAt,value
2019-04-16T00:01:46.725Z,33.63
2019-04-16T00:04:41.069Z,32.93
2019-04-16T00:07:27.234Z,33.60
2019-04-16T00:10:06.962Z,32.63
2019-04-16T00:12:54.130Z,33.47
2019-04-16T00:15:23.600Z,34.00
2019-04-16T00:17:52.954Z,39.50
2019-04-16T00:20:22.405Z,37.20
2019-04-16T00:23:00.270Z,30.13
2019-04-16T00:25:29.714Z,40.23
2019-04-16T00:28:00.208Z,32.10
2019-04-16T00:30:30.391Z,32.33
2019-04-16T00:32:59.820Z,30.00
2019-04-16T00:35:29.266Z,31.87
2019-04-16T00:37:58.645Z,30.87
2019-04-16T00:40:28.071Z,31.27
2019-04-16T00:42:57.430Z,32.43
2019-04-16T00:45:26.891Z,39.00
2019-04-16T00:47:56.263Z,41.83
2019-04-16T00:50:26.014Z,37.83
2019-04-16T00:52:55.449Z,33.23
2019-04-16T00:55:25.037Z,35.83
2019-04-16T00:57:54.450Z,40.07
2019-04-16T01:00:23.838Z,39.47
2019-04-16T01:02:53.285Z,39.23
2019-04-16T01:05:22.775Z,36.20
2019-04-16T01:07:52.214Z,37.37
2019-04-16T01:10:21.564Z,35.60
2019-04-16T01:12:51.018Z,48.87
2019-04-16T01:15:20.499Z,39.50
2019-04-16T01:17:49.996Z,45.10
2019-04-16T01:20:19.422Z,33.93
2019-04-16T01:22:48.822Z,36.17
2019-04-16T01:25:20.255Z,34.17
2019-04-16T01:27:54.013Z,32.93
2019-04-16T01:30:36.570Z,32.20
2019-04-16T01:33:25.633Z,32.73
2019-04-16T01:36:25.266Z,36.77
2019-04-16T01:39:14.986Z,40.97
2019-04-16T01:41:29.092Z,29.17
2019-04-16T01:43:58.637Z,31.43
2019-04-16T01:46:32.568Z,37.50
2019-04-16T01:48:59.190Z,35.43
2019-04-16T01:51:28.748Z,36.57
2019-04-16T01:53:58.309Z,38.50
2019-04-16T01:56:28.884Z,40.67
2019-04-16T01:58:58.654Z,36.70
2019-04-16T02:01:28.036Z,38.80
2019-04-16T02:03:57.594Z,41.83
2019-04-16T02:06:27.014Z,33.37
2019-04-16T02:08:56.552Z,38.97
2019-04-16T02:11:26.278Z,35.00
2019-04-16T02:13:55.691Z,35.67
2019-04-16T02:16:25.934Z,37.77
2019-04-16T02:18:55.614Z,32.13
2019-04-16T02:21:24.978Z,33.30
2019-04-16T02:23:54.438Z,36.53
2019-04-16T02:26:24.237Z,33.70
2019-04-16T02:28:56.395Z,31.83
2019-04-16T02:31:25.016Z,34.70
2019-04-16T02:33:54.414Z,34.50
2019-04-16T02:36:23.951Z,31.00
2019-04-16T02:38:53.951Z,33.30
2019-04-16T02:41:24.677Z,28.53
2019-04-16T02:43:54.366Z,26.87
2019-04-16T02:46:30.606Z,44.43
2019-04-16T02:48:55.063Z,28.43
2019-04-16T02:51:41.294Z,34.17
2019-04-16T02:54:32.341Z,37.47
2019-04-16T02:57:15.110Z,37.77
2019-04-16T02:59:47.392Z,36.20
2019-04-16T03:02:34.102Z,31.10
2019-04-16T03:05:12.157Z,38.37
2019-04-16T03:07:41.654Z,32.67
2019-04-16T03:10:13.253Z,32.27
2019-04-16T03:12:42.614Z,28.03
2019-04-16T03:15:12.659Z,32.40
2019-04-16T03:17:45.110Z,31.47
2019-04-16T03:20:15.691Z,32.93
2019-04-16T03:22:45.279Z,34.47
2019-04-16T03:25:14.772Z,30.47
2019-04-16T03:27:44.251Z,29.27
2019-04-16T03:30:13.832Z,33.47
2019-04-16T03:32:50.581Z,33.67
2019-04-16T03:35:25.559Z,29.87
2019-04-16T03:37:51.515Z,27.60
2019-04-16T03:40:24.665Z,24.47
2019-04-16T03:42:52.140Z,27.47
2019-04-16T03:45:21.603Z,36.17
2019-04-16T03:47:52.207Z,31.67
2019-04-16T03:50:21.782Z,31.83
2019-04-16T03:52:51.226Z,36.17
2019-04-16T03:55:25.015Z,31.20
2019-04-16T03:57:51.761Z,31.03
2019-04-16T04:00:21.321Z,34.17
2019-04-16T04:02:53.877Z,28.03
2019-04-16T04:05:21.979Z,31.27
2019-04-16T04:07:51.558Z,31.13
2019-04-16T04:10:30.391Z,29.43
2019-04-16T04:12:52.283Z,27.73
2019-04-16T04:15:26.043Z,29.27
2019-04-16T04:17:52.925Z,31.43
2019-04-16T04:20:22.442Z,28.67
2019-04-16T04:22:56.747Z,32.30
2019-04-16T04:25:22.926Z,40.27
2019-04-16T04:27:52.376Z,32.30
2019-04-16T04:30:25.644Z,24.93
2019-04-16T04:32:54.487Z,26.43
2019-04-16T04:35:23.943Z,31.30
2019-04-16T04:37:53.418Z,28.27
2019-04-16T04:40:22.802Z,26.10
2019-04-16T04:42:52.225Z,26.10
2019-04-16T04:45:21.755Z,27.67
2019-04-16T04:47:52.277Z,26.73
2019-04-16T04:50:22.224Z,28.73
2019-04-16T04:52:51.817Z,23.13
2019-04-16T04:55:23.437Z,28.80
2019-04-16T04:57:52.420Z,31.27
2019-04-16T05:00:21.823Z,26.60
2019-04-16T05:02:51.421Z,26.80
2019-04-16T05:05:35.177Z,24.50
2019-04-16T05:08:04.677Z,22.90
2019-04-16T05:10:36.898Z,24.10
2019-04-16T05:13:05.743Z,24.07
2019-04-16T05:15:35.382Z,22.27
2019-04-16T05:18:05.954Z,23.57
2019-04-16T05:20:35.574Z,23.60
2019-04-16T05:23:05.134Z,24.40
2019-04-16T05:25:34.586Z,28.10
2019-04-16T05:28:03.935Z,24.20
2019-04-16T05:30:33.438Z,22.37
2019-04-16T05:33:05.602Z,23.63
2019-04-16T05:35:34.320Z,20.80
2019-04-16T05:38:04.020Z,18.70
2019-04-16T05:40:35.213Z,27.40
2019-04-16T05:43:04.786Z,22.63
2019-04-16T05:45:34.498Z,20.20
2019-04-16T05:48:05.351Z,21.13
2019-04-16T05:50:34.899Z,21.97
2019-04-16T05:53:05.418Z,21.17
2019-04-16T05:55:50.550Z,25.53
2019-04-16T05:58:20.393Z,22.07
2019-04-16T06:01:13.774Z,24.90
2019-04-16T06:03:43.618Z,29.70
2019-04-16T06:06:13.039Z,24.93
2019-04-16T06:08:42.563Z,26.20
2019-04-16T06:11:11.974Z,18.50
2019-04-16T06:13:50.593Z,23.33
2019-04-16T06:16:37.731Z,18.07
2019-04-16T06:19:24.846Z,17.87
2019-04-16T06:22:12.047Z,22.60
2019-04-16T06:25:00.401Z,21.57
2019-04-16T06:27:33.550Z,18.67
2019-04-16T06:30:37.422Z,18.23
2019-04-16T06:33:10.443Z,17.43
2019-04-16T06:36:17.026Z,14.23
2019-04-16T06:38:50.691Z,20.33
2019-04-16T10:27:04.240Z,5.67
2019-04-16T10:29:32.838Z,7.90
2019-04-16T10:32:02.313Z,8.13
2019-04-16T10:34:32.436Z,6.70
2019-04-16T10:37:01.893Z,7.67
2019-04-16T10:39:36.324Z,7.07
2019-04-16T10:42:30.818Z,6.57
2019-04-16T10:45:15.281Z,6.80
2019-04-16T10:47:58.283Z,7.20
2019-04-16T10:50:52.885Z,9.47
2019-04-16T10:53:41.211Z,9.10
2019-04-16T10:56:28.650Z,9.03
2019-04-16T10:59:18.622Z,5.97
2019-04-16T11:02:13.242Z,5.33
2019-04-16T11:05:04.636Z,8.27
2019-04-16T11:07:34.881Z,8.60
2019-04-16T11:10:04.964Z,6.57
2019-04-16T11:12:34.522Z,5.40
2019-04-16T11:15:04.499Z,6.37
2019-04-16T11:17:33.937Z,5.87
2019-04-16T11:20:03.486Z,7.70
2019-04-16T11:22:32.990Z,7.70
2019-04-16T11:25:11.512Z,9.67
2019-04-16T11:27:41.058Z,6.40
2019-04-16T11:30:16.958Z,8.10
2019-04-16T11:32:46.425Z,7.60
2019-04-16T11:35:17.016Z,6.17
2019-04-16T11:37:47.231Z,9.50
2019-04-16T11:40:36.433Z,6.63
2019-04-16T11:43:05.988Z,6.93
2019-04-16T11:45:35.878Z,6.57
2019-04-16T11:48:05.235Z,6.67
2019-04-16T11:50:36.169Z,9.20
2019-04-16T11:53:05.803Z,7.43
2019-04-16T11:55:35.350Z,6.90
2019-04-16T11:58:08.597Z,8.57
2019-04-16T12:00:46.590Z,7.63
2019-04-16T12:03:38.253Z,7.10
2019-04-16T12:06:37.216Z,5.40
2019-04-16T12:09:36.349Z,7.70
2019-04-16T12:12:11.258Z,6.33
2019-04-16T12:14:52.883Z,7.77
2019-04-16T12:17:31.219Z,8.53
2019-04-16T12:20:22.790Z,6.10
2019-04-16T12:23:11.254Z,9.13
2019-04-16T12:26:11.943Z,13.33
2019-04-16T12:28:53.203Z,5.37
2019-04-16T12:31:40.855Z,11.47
2019-04-16T12:34:41.341Z,7.50
2019-04-16T12:37:17.232Z,7.63
2019-04-16T12:40:19.005Z,9.73
2019-04-16T12:43:01.628Z,7.17
2019-04-16T12:45:53.952Z,11.53
2019-04-16T12:48:45.545Z,9.07
2019-04-16T12:51:45.760Z,8.80
2019-04-16T12:54:42.067Z,10.37
2019-04-16T12:57:32.495Z,9.87
2019-04-16T13:00:11.746Z,9.47
2019-04-16T13:03:03.347Z,5.93
2019-04-16T13:05:54.750Z,13.53
2019-04-16T13:08:39.954Z,7.13
2019-04-16T13:11:40.465Z,6.10
2019-04-16T13:14:27.751Z,9.53
2019-04-16T13:17:04.602Z,7.40
2019-04-16T13:19:53.958Z,6.23
2019-04-16T13:22:27.172Z,7.63
2019-04-16T13:25:05.119Z,10.40
2019-04-16T13:27:36.710Z,7.87
2019-04-16T13:30:08.080Z,11.30
2019-04-16T13:32:37.676Z,6.53
2019-04-16T13:35:07.793Z,10.47
2019-04-16T13:37:38.050Z,8.60
2019-04-16T13:40:11.863Z,6.57
2019-04-16T13:42:41.403Z,12.23
2019-04-16T13:45:26.975Z,6.77
2019-04-16T13:47:56.266Z,8.17
2019-04-16T13:51:00.057Z,9.10
2019-04-16T13:53:54.359Z,8.07
2019-04-16T13:56:50.139Z,9.77
2019-04-16T13:59:40.892Z,11.00
2019-04-16T14:02:23.003Z,8.40
2019-04-16T14:04:52.520Z,8.20
2019-04-16T14:07:25.301Z,12.80
2019-04-16T14:09:53.361Z,9.97
2019-04-16T14:12:40.548Z,9.50
2019-04-16T14:14:54.171Z,9.20
2019-04-16T14:17:25.915Z,8.07
2019-04-16T14:19:55.385Z,9.07
2019-04-16T14:22:25.396Z,8.77
2019-04-16T14:24:55.294Z,9.03
2019-04-16T14:27:24.853Z,9.47
2019-04-16T14:29:54.331Z,11.47
2019-04-16T14:32:24.097Z,12.73
2019-04-16T14:34:58.963Z,9.40
2019-04-16T14:37:28.521Z,9.37
2019-04-16T14:40:16.944Z,13.20
2019-04-16T14:42:46.503Z,10.70
2019-04-16T14:45:20.424Z,10.07
2019-04-16T14:47:49.891Z,15.30
2019-04-16T14:50:19.941Z,9.60
2019-04-16T14:52:50.561Z,12.10
2019-04-16T14:55:37.903Z,11.10
2019-04-16T14:58:25.104Z,12.03
2019-04-16T15:01:12.320Z,11.17
2019-04-16T15:04:08.463Z,14.67
2019-04-16T15:07:09.084Z,11.10
2019-04-16T15:10:02.322Z,13.97
2019-04-16T15:13:02.806Z,14.13
2019-04-16T15:16:05.610Z,13.97
2019-04-16T15:18:44.248Z,11.23
2019-04-16T15:21:31.564Z,14.80
2019-04-16T15:24:26.208Z,12.67
2019-04-16T15:27:13.139Z,12.33
2019-04-16T15:30:04.641Z,18.63
2019-04-16T15:32:51.856Z,16.17
2019-04-16T15:35:26.943Z,16.60
2019-04-16T15:38:04.809Z,15.40
2019-04-16T15:40:39.312Z,14.67
2019-04-16T15:43:26.160Z,14.97
2019-04-16T15:46:27.014Z,11.90
2019-04-16T15:49:19.471Z,11.47
2019-04-16T15:52:10.541Z,15.17
2019-04-16T15:55:11.204Z,16.13
2019-04-16T15:58:04.686Z,19.27
2019-04-16T16:00:48.853Z,14.13
2019-04-16T16:03:37.161Z,14.93
2019-04-16T16:06:25.595Z,18.00
2019-04-16T16:09:09.504Z,18.10
2019-04-16T16:11:56.061Z,20.10
2019-04-16T16:14:25.644Z,24.13
2019-04-16T16:16:55.138Z,22.57
2019-04-16T16:19:24.995Z,21.03
2019-04-16T16:21:54.638Z,20.33
2019-04-16T16:24:24.156Z,16.67
2019-04-16T16:26:54.185Z,16.40
2019-04-16T16:29:23.847Z,11.63
2019-04-16T16:31:53.469Z,13.97
2019-04-16T16:34:23.165Z,11.80
2019-04-16T16:36:52.794Z,12.10
2019-04-16T16:39:22.427Z,19.27
2019-04-16T16:41:51.937Z,13.03
2019-04-16T16:44:21.402Z,16.60
2019-04-16T16:47:06.250Z,14.83
2019-04-16T16:49:35.683Z,16.47
2019-04-16T16:52:23.392Z,14.13
2019-04-16T16:54:54.219Z,16.63
2019-04-16T16:57:31.607Z,17.30
2019-04-16T17:00:20.758Z,19.07
2019-04-16T17:02:54.287Z,17.57
2019-04-16T17:05:28.535Z,23.03
2019-04-16T17:07:58.091Z,15.00
2019-04-16T17:10:27.697Z,14.53
2019-04-16T17:12:57.543Z,19.23
2019-04-16T17:15:27.539Z,19.07
2019-04-16T17:17:57.409Z,19.13
2019-04-16T17:20:26.951Z,19.67
2019-04-16T17:22:56.652Z,20.50
2019-04-16T17:25:36.287Z,22.63
2019-04-16T17:27:57.602Z,19.17
2019-04-16T17:30:27.567Z,21.80
2019-04-16T17:32:57.460Z,20.90
2019-04-16T17:35:27.056Z,21.40
2019-04-16T17:38:01.529Z,22.73
2019-04-16T17:40:51.146Z,23.07
2019-04-16T17:43:43.643Z,26.50
2019-04-16T17:46:29.456Z,35.63
2019-04-16T17:49:33.331Z,32.53
2019-04-16T17:52:12.183Z,27.13
2019-04-16T17:54:52.895Z,33.57
2019-04-16T17:57:35.244Z,24.90
2019-04-16T18:00:23.733Z,26.13
2019-04-16T18:03:12.275Z,28.83
2019-04-16T18:05:56.780Z,26.30
2019-04-16T18:08:51.269Z,25.30
2019-04-16T18:11:44.663Z,26.60
2019-04-16T18:14:31.627Z,25.33
2019-04-16T18:17:26.544Z,26.07
2019-04-16T18:20:22.995Z,25.90
2019-04-16T18:23:27.463Z,27.67
2019-04-16T18:26:12.838Z,34.40
2019-04-16T18:28:53.604Z,32.43
2019-04-16T18:31:56.013Z,41.00
2019-04-16T18:34:56.587Z,54.40
2019-04-16T18:38:00.399Z,48.23
2019-04-16T18:40:47.774Z,69.83
2019-04-16T18:43:35.774Z,43.30
2019-04-16T18:46:19.603Z,57.03
2019-04-16T18:48:54.264Z,58.37
2019-04-16T18:51:24.044Z,65.07
2019-04-16T18:53:54.536Z,65.53
2019-04-16T18:56:24.312Z,73.90
2019-04-16T18:58:54.053Z,56.77
2019-04-16T19:01:29.570Z,43.53
2019-04-16T19:04:00.407Z,36.30
2019-04-16T19:06:31.836Z,30.00
2019-04-16T19:09:01.857Z,33.47
2019-04-16T19:11:31.655Z,32.10
2019-04-16T19:14:03.007Z,30.00
2019-04-16T19:16:32.492Z,30.40
2019-04-16T19:19:02.187Z,37.90
2019-04-16T19:21:31.881Z,40.40
2019-04-16T19:24:01.693Z,34.10
2019-04-16T19:26:31.548Z,33.63
2019-04-16T19:29:01.216Z,32.20
2019-04-16T19:31:30.829Z,30.87
2019-04-16T19:34:00.371Z,32.77
2019-04-16T19:36:29.995Z,28.77
2019-04-16T19:38:59.819Z,25.70
2019-04-16T19:41:29.754Z,28.30
2019-04-16T19:43:59.447Z,26.43
2019-04-16T19:46:29.404Z,26.70
2019-04-16T19:49:00.334Z,28.70
2019-04-16T19:51:32.509Z,29.13
2019-04-16T19:54:02.470Z,32.47
2019-04-16T19:56:33.545Z,34.77
2019-04-16T19:59:04.128Z,29.27
2019-04-16T20:01:33.989Z,30.13
2019-04-16T20:04:09.730Z,26.00
2019-04-16T20:06:35.780Z,27.07
2019-04-16T20:09:06.915Z,28.10
2019-04-16T20:11:36.548Z,25.30
2019-04-16T20:14:08.014Z,26.70
2019-04-16T20:16:37.817Z,23.80
2019-04-16T20:19:07.779Z,39.60
2019-04-16T20:21:39.503Z,27.37
2019-04-16T20:24:09.261Z,26.17
2019-04-16T20:26:39.191Z,23.60
2019-04-16T20:29:09.047Z,25.03
2019-04-16T20:31:38.729Z,21.57
2019-04-16T20:34:09.345Z,24.40
2019-04-16T20:36:39.839Z,23.07
2019-04-16T20:39:09.730Z,27.67
2019-04-16T20:41:39.554Z,29.23
2019-04-16T20:44:09.574Z,22.60
2019-04-16T20:46:39.283Z,30.13
2019-04-16T20:49:11.220Z,41.60
2019-04-16T20:51:42.666Z,27.87
2019-04-16T20:54:13.917Z,32.67
2019-04-16T20:56:43.722Z,34.13
2019-04-16T20:59:13.402Z,31.00
2019-04-16T21:01:42.948Z,34.07
2019-04-16T21:04:12.510Z,27.47
2019-04-16T21:06:42.266Z,29.03
2019-04-16T21:09:11.935Z,36.40
2019-04-16T21:11:41.916Z,29.60
2019-04-16T21:14:11.471Z,26.30
2019-04-16T21:16:40.859Z,29.07
2019-04-16T21:19:22.048Z,30.80
2019-04-16T21:21:41.438Z,32.63
2019-04-16T21:24:13.604Z,25.97
2019-04-16T21:26:42.023Z,27.07
2019-04-16T21:29:33.399Z,27.27
2019-04-16T21:32:03.503Z,33.47
2019-04-16T21:34:36.466Z,29.07
2019-04-16T21:37:30.879Z,36.20
2019-04-16T21:40:01.908Z,25.13
2019-04-16T21:42:34.261Z,30.87
2019-04-16T21:45:02.526Z,30.40
2019-04-16T21:47:32.007Z,31.33
2019-04-16T21:50:01.621Z,30.67
2019-04-16T21:52:31.164Z,27.73
2019-04-16T21:55:03.965Z,24.37
2019-04-16T21:57:31.851Z,25.87
2019-04-16T22:00:01.495Z,28.07
2019-04-16T22:02:37.283Z,24.90
2019-04-16T22:05:07.851Z,30.67
2019-04-16T22:07:37.395Z,25.07
2019-04-16T22:10:06.854Z,29.13
2019-04-16T22:12:36.215Z,23.63
2019-04-16T22:15:07.607Z,24.93
2019-04-16T22:17:37.075Z,26.20
2019-04-16T22:20:07.080Z,21.90
2019-04-16T22:22:36.487Z,22.67
2019-04-16T22:25:06.268Z,20.37
2019-04-16T22:27:36.763Z,21.33
2019-04-16T22:30:08.658Z,22.37
2019-04-16T22:32:38.106Z,24.83
2019-04-16T22:35:07.561Z,20.23
2019-04-16T22:37:36.986Z,21.63
2019-04-16T22:40:23.597Z,19.90
2019-04-16T22:43:21.034Z,26.20
2019-04-16T22:45:56.430Z,25.50
2019-04-16T22:48:26.046Z,20.90
2019-04-16T22:50:55.402Z,21.67
2019-04-16T22:53:24.986Z,27.63
2019-04-16T22:55:56.681Z,24.90
2019-04-16T22:58:27.675Z,23.50
2019-04-16T23:01:01.353Z,15.63
2019-04-16T23:03:30.800Z,23.80
2019-04-16T23:06:00.918Z,20.60
2019-04-16T23:08:31.383Z,18.43
2019-04-16T23:11:00.741Z,18.10
2019-04-16T23:13:32.564Z,31.13
2019-04-16T23:16:01.575Z,19.83
2019-04-16T23:18:31.060Z,20.40
2019-04-16T23:21:00.399Z,19.97
2019-04-16T23:23:29.806Z,19.73
2019-04-16T23:26:00.849Z,23.50
2019-04-16T23:28:30.341Z,26.17
2019-04-16T23:31:00.215Z,22.13
2019-04-16T23:33:32.569Z,19.27
2019-04-16T23:36:00.758Z,24.80
2019-04-16T23:38:31.727Z,23.00
2019-04-16T23:41:01.294Z,24.33
2019-04-16T23:43:50.546Z,21.80
2019-04-16T23:46:45.083Z,22.73
2019-04-16T23:49:34.848Z,23.53
2019-04-16T23:52:41.838Z,23.07
2019-04-16T23:55:36.133Z,22.33
2019-04-16T23:58:28.284Z,22.20
